Time;durP1;ratioP1;P1;durP2;ratioP2;P2;SDS_P1;SDS_P2;PMS_P1;PMS_P2;Temp;Humidity;BMP_temperature;BMP_pressure;BME280_temperature;BME280_humidity;BME280_pressure;Samples;Min_cycle;Max_cycle;Signal;HPM_P1;HPM_P2
2022/09/09 00:01:52;;;;;;;0.00;0.00;;;15.80;99.90;;;;;;5022010;28;20542;-73
2022/09/09 00:04:28;;;;;;;0.00;0.00;;;15.90;99.90;;;;;;5022319;28;20437;-72
2022/09/09 00:07:07;;;;;;;0.00;0.00;;;16.00;99.90;;;;;;5022130;28;20444;-72
2022/09/09 00:09:45;;;;;;;0.00;0.00;;;16.00;99.90;;;;;;5021527;28;20464;-72
2022/09/09 00:12:16;;;;;;;0.00;0.00;;;16.10;99.90;;;;;;5021484;28;20479;-73
2022/09/09 00:14:50;;;;;;;0.00;0.00;;;16.10;99.90;;;;;;5021756;28;20465;-75
2022/09/09 00:17:33;;;;;;;0.00;0.00;;;16.20;99.90;;;;;;5021989;28;21041;-73
2022/09/09 00:20:06;;;;;;;0.00;0.00;;;16.20;99.90;;;;;;5021709;28;20461;-75
2022/09/09 00:22:39;;;;;;;0.00;0.00;;;16.30;99.90;;;;;;5021842;28;20441;-75
2022/09/09 00:25:16;;;;;;;0.00;0.00;;;16.30;99.90;;;;;;5022201;28;20469;-74
2022/09/09 00:27:47;;;;;;;0.00;0.00;;;16.30;99.90;;;;;;5024647;28;20437;-75
2022/09/09 00:30:19;;;;;;;0.00;0.00;;;16.40;99.90;;;;;;5028644;28;21214;-75
2022/09/09 00:32:48;;;;;;;0.00;0.00;;;16.40;99.90;;;;;;5027030;28;20461;-75
2022/09/09 00:35:22;;;;;;;0.00;0.00;;;16.40;99.90;;;;;;5022250;28;20430;-75
2022/09/09 00:37:54;;;;;;;0.00;0.00;;;16.50;99.90;;;;;;5022182;28;20504;-75
2022/09/09 00:40:28;;;;;;;0.00;0.00;;;16.50;99.90;;;;;;5021233;28;20464;-75
2022/09/09 00:43:15;;;;;;;0.00;0.00;;;16.50;99.90;;;;;;5021658;28;20468;-73
2022/09/09 00:46:00;;;;;;;0.00;0.00;;;16.60;99.90;;;;;;5020542;28;20510;-73
2022/09/09 00:48:37;;;;;;;0.00;0.00;;;16.60;99.90;;;;;;5020517;28;21009;-73
2022/09/09 00:51:12;;;;;;;0.00;0.00;;;16.60;99.90;;;;;;5020681;28;20519;-75
2022/09/09 00:53:57;;;;;;;0.00;0.00;;;16.60;99.90;;;;;;5020764;28;20462;-69
2022/09/09 00:56:30;;;;;;;0.00;0.00;;;16.70;99.90;;;;;;5020571;28;20498;-70
2022/09/09 00:59:07;;;;;;;0.00;0.00;;;16.60;99.90;;;;;;5020559;28;20479;-72
2022/09/09 01:01:35;;;;;;;0.00;0.00;;;16.60;99.90;;;;;;5020414;28;20452;-69
2022/09/09 01:04:09;;;;;;;0.00;0.00;;;16.60;99.90;;;;;;5020650;28;20442;-72
2022/09/09 01:06:39;;;;;;;0.00;0.00;;;16.60;99.90;;;;;;5020473;28;20498;-72
2022/09/09 01:09:20;;;;;;;0.00;0.00;;;16.70;99.90;;;;;;5020018;28;21136;-71
2022/09/09 01:11:58;;;;;;;0.00;0.00;;;16.70;99.90;;;;;;5020741;28;20436;-71
2022/09/09 01:14:40;;;;;;;0.00;0.00;;;16.60;99.90;;;;;;5020158;28;20436;-71
2022/09/09 01:17:15;;;;;;;0.00;0.00;;;16.60;99.90;;;;;;5020260;28;20592;-71
2022/09/09 01:19:56;;;;;;;0.00;0.00;;;16.60;99.90;;;;;;5019856;28;20473;-71
2022/09/09 01:22:35;;;;;;;0.00;0.00;;;16.60;99.90;;;;;;5020526;28;20429;-71
2022/09/09 01:25:22;;;;;;;0.00;0.00;;;16.60;99.90;;;;;;5020100;28;21001;-71
2022/09/09 01:27:54;;;;;;;0.00;0.00;;;16.60;99.90;;;;;;5020233;28;20437;-71
2022/09/09 01:30:23;;;;;;;0.00;0.00;;;16.60;99.90;;;;;;5020105;28;20465;-70
2022/09/09 01:32:54;;;;;;;0.00;0.00;;;16.60;99.90;;;;;;5019623;28;20499;-71
2022/09/09 01:35:36;;;;;;;0.00;0.00;;;16.60;99.90;;;;;;5019299;28;20502;-71
2022/09/09 01:38:04;;;;;;;0.00;0.00;;;16.60;99.90;;;;;;5019726;28;20434;-70
2022/09/09 01:40:33;;;;;;;0.00;0.00;;;16.50;99.90;;;;;;5019644;28;20472;-70
2022/09/09 01:43:02;;;;;;;0.00;0.00;;;16.50;99.90;;;;;;5020771;28;20444;-71
2022/09/09 01:45:31;;;;;;;0.00;0.00;;;16.50;99.90;;;;;;5019373;28;20743;-71
2022/09/09 01:48:00;;;;;;;0.00;0.00;;;16.50;99.90;;;;;;5019305;28;20834;-71
2022/09/09 01:50:28;;;;;;;0.00;0.00;;;16.50;99.90;;;;;;5019173;28;20462;-71
2022/09/09 01:52:58;;;;;;;0.00;0.00;;;16.50;99.90;;;;;;5019340;28;20722;-71
2022/09/09 01:55:31;;;;;;;0.00;0.00;;;16.40;99.90;;;;;;5019112;28;20657;-71
2022/09/09 01:58:15;;;;;;;0.00;0.00;;;16.40;99.90;;;;;;5018612;28;20445;-71
2022/09/09 02:00:49;;;;;;;0.00;0.00;;;16.40;99.90;;;;;;5019695;28;20507;-71
2022/09/09 02:03:25;;;;;;;0.00;0.00;;;16.40;99.90;;;;;;5019834;28;20449;-71
2022/09/09 02:06:01;;;;;;;0.00;0.00;;;16.30;99.90;;;;;;5019510;28;20472;-71
2022/09/09 02:08:37;;;;;;;0.00;0.00;;;16.30;99.90;;;;;;5017944;28;20460;-71
2022/09/09 02:11:10;;;;;;;0.00;0.00;;;16.30;99.90;;;;;;5019312;28;20456;-72
2022/09/09 02:13:40;;;;;;;0.00;0.00;;;16.20;99.90;;;;;;5019813;28;20441;-71
2022/09/09 02:22:13;;;;;;;0.00;0.00;;;16.20;99.90;;;;;;5068317;28;20603;-89
2022/09/09 02:24:41;;;;;;;0.00;0.00;;;16.10;99.90;;;;;;5065592;28;20815;-89
2022/09/09 02:27:10;;;;;;;0.00;0.00;;;16.20;99.90;;;;;;5064914;28;20942;-89
2022/09/09 02:29:42;;;;;;;0.00;0.00;;;16.10;99.90;;;;;;5064525;28;20867;-89
2022/09/09 02:32:15;;;;;;;0.00;0.00;;;16.20;99.90;;;;;;5064452;28;20485;-88
2022/09/09 02:34:46;;;;;;;0.00;0.00;;;16.20;99.90;;;;;;5068802;28;20457;-89
2022/09/09 02:37:18;;;;;;;0.00;0.00;;;16.20;99.90;;;;;;5069078;28;20562;-89
2022/09/09 02:39:47;;;;;;;0.00;0.00;;;16.20;99.90;;;;;;5068436;28;20736;-90
2022/09/09 02:42:15;;;;;;;0.00;0.00;;;16.20;99.90;;;;;;5070211;28;20504;-90
2022/09/09 02:44:45;;;;;;;0.00;0.00;;;16.20;99.90;;;;;;5069960;28;20474;-89
2022/09/09 02:47:30;;;;;;;0.00;0.00;;;16.20;99.90;;;;;;5070684;28;20547;-90
2022/09/09 02:50:08;;;;;;;0.00;0.00;;;16.20;99.90;;;;;;5066949;28;20448;-91
2022/09/09 02:52:48;;;;;;;0.00;0.00;;;16.10;99.90;;;;;;5073631;28;20412;-89
2022/09/09 02:55:21;;;;;;;0.00;0.00;;;16.10;99.90;;;;;;5069375;28;20435;-89
2022/09/09 02:57:50;;;;;;;0.00;0.00;;;16.10;99.90;;;;;;5069957;28;20447;-89
2022/09/09 03:00:26;;;;;;;0.00;0.00;;;16.10;99.90;;;;;;5076838;28;20683;-90
2022/09/09 03:02:54;;;;;;;0.00;0.00;;;16.00;99.90;;;;;;5079769;28;20420;-86
2022/09/09 03:05:22;;;;;;;0.00;0.00;;;16.00;99.90;;;;;;5077242;28;20450;-87
2022/09/09 03:07:50;;;;;;;0.00;0.00;;;16.00;99.90;;;;;;5074303;28;20475;-89
2022/09/09 03:10:19;;;;;;;0.00;0.00;;;16.00;99.90;;;;;;5076124;28;20498;-89
2022/09/09 03:12:46;;;;;;;0.00;0.00;;;15.90;99.90;;;;;;5076109;28;20657;-89
2022/09/09 03:15:15;;;;;;;0.00;0.00;;;16.00;99.90;;;;;;5077364;28;20447;-90
2022/09/09 03:17:44;;;;;;;0.00;0.00;;;15.90;99.90;;;;;;5076510;28;20438;-90
2022/09/09 03:20:12;;;;;;;0.00;0.00;;;15.90;99.90;;;;;;5081364;28;20709;-88
2022/09/09 03:22:40;;;;;;;0.00;0.00;;;15.80;99.90;;;;;;5076986;28;20465;-86
2022/09/09 03:25:08;;;;;;;0.00;0.00;;;15.80;99.90;;;;;;5076925;28;20512;-88
2022/09/09 03:27:36;;;;;;;0.00;0.00;;;15.80;99.90;;;;;;5078727;28;20511;-88
2022/09/09 03:30:05;;;;;;;0.00;0.00;;;15.70;99.90;;;;;;5078179;28;20768;-89
2022/09/09 03:32:33;;;;;;;0.00;0.00;;;15.70;99.90;;;;;;5077470;28;20462;-88
2022/09/09 03:35:02;;;;;;;0.00;0.00;;;15.60;99.90;;;;;;5076746;28;20451;-88
2022/09/09 03:37:31;;;;;;;0.00;0.00;;;15.60;99.90;;;;;;5076155;28;21036;-85
2022/09/09 03:39:59;;;;;;;0.00;0.00;;;15.60;99.90;;;;;;5076755;28;20442;-88
2022/09/09 03:42:27;;;;;;;0.00;0.00;;;15.60;99.90;;;;;;5076942;28;20454;-89
2022/09/09 03:44:57;;;;;;;0.00;0.00;;;15.60;99.90;;;;;;5074787;28;20512;-86
2022/09/09 03:47:25;;;;;;;0.00;0.00;;;15.60;99.90;;;;;;5076374;28;20470;-88
2022/09/09 03:49:53;;;;;;;0.00;0.00;;;15.50;99.90;;;;;;5076321;28;20805;-87
2022/09/09 03:52:24;;;;;;;0.00;0.00;;;15.60;99.90;;;;;;5077409;28;20454;-87
2022/09/09 03:54:53;;;;;;;0.00;0.00;;;15.60;99.90;;;;;;5077769;28;20753;-87
2022/09/09 03:57:21;;;;;;;0.00;0.00;;;15.60;99.90;;;;;;5078339;28;20522;-89
2022/09/09 03:59:49;;;;;;;0.00;0.00;;;15.60;99.90;;;;;;5076517;28;20450;-90
2022/09/09 04:02:17;;;;;;;0.00;0.00;;;15.60;99.90;;;;;;5080690;28;20455;-90
2022/09/09 04:04:45;;;;;;;0.00;0.00;;;15.70;99.90;;;;;;5092111;28;20430;-90
2022/09/09 04:07:13;;;;;;;0.00;0.00;;;15.70;99.90;;;;;;5089876;28;20481;-87
2022/09/09 04:09:43;;;;;;;0.00;0.00;;;15.70;99.90;;;;;;5078387;28;20457;-92
2022/09/09 04:12:13;;;;;;;0.00;0.00;;;15.70;99.90;;;;;;5082188;28;20467;-89
2022/09/09 04:14:41;;;;;;;0.00;0.00;;;15.70;99.90;;;;;;5081097;28;20447;-87
2022/09/09 04:17:09;;;;;;;0.00;0.00;;;15.70;99.90;;;;;;5080791;28;20432;-88
2022/09/09 04:19:36;;;;;;;0.00;0.00;;;15.70;99.90;;;;;;5078787;28;20688;-89
2022/09/09 04:22:05;;;;;;;0.00;0.00;;;15.70;99.90;;;;;;5075976;28;21249;-87
2022/09/09 04:24:33;;;;;;;0.00;0.00;;;15.60;99.90;;;;;;5075569;28;20451;-90
2022/09/09 04:27:02;;;;;;;0.00;0.00;;;15.60;99.90;;;;;;5076023;28;20451;-89
2022/09/09 04:29:30;;;;;;;0.00;0.00;;;15.60;99.90;;;;;;5075317;28;20809;-89
2022/09/09 04:32:01;;;;;;;0.00;0.00;;;15.50;99.90;;;;;;5072458;28;21035;-90
2022/09/09 04:34:30;;;;;;;0.00;0.00;;;15.40;99.90;;;;;;5077599;28;20439;-91
2022/09/09 04:36:58;;;;;;;0.00;0.00;;;15.30;99.90;;;;;;5076250;28;20501;-88
2022/09/09 04:39:26;;;;;;;0.00;0.00;;;15.20;99.90;;;;;;5072389;28;20497;-89
2022/09/09 04:41:55;;;;;;;0.00;0.00;;;15.20;99.90;;;;;;5073485;28;20640;-91
2022/09/09 04:44:24;;;;;;;0.00;0.00;;;15.10;99.90;;;;;;5077075;28;20447;-93
2022/09/09 04:46:52;;;;;;;0.00;0.00;;;15.10;99.90;;;;;;5076547;28;20458;-91
2022/09/09 04:49:23;;;;;;;0.00;0.00;;;15.10;99.90;;;;;;5076941;28;20478;-87
2022/09/09 04:51:51;;;;;;;0.00;0.00;;;15.10;99.90;;;;;;5075141;28;20490;-88
2022/09/09 04:54:19;;;;;;;0.00;0.00;;;15.20;99.90;;;;;;5073101;28;20430;-87
2022/09/09 04:56:48;;;;;;;0.00;0.00;;;15.20;99.90;;;;;;5072764;28;20555;-88
2022/09/09 04:59:20;;;;;;;0.00;0.00;;;15.30;99.90;;;;;;5073706;28;21253;-86
2022/09/09 05:01:51;;;;;;;0.00;0.00;;;15.40;99.90;;;;;;5072156;28;20459;-87
2022/09/09 05:04:19;;;;;;;0.00;0.00;;;15.40;99.90;;;;;;5066509;28;20961;-86
2022/09/09 05:06:47;;;;;;;0.00;0.00;;;15.50;99.90;;;;;;5061033;28;20436;-87
2022/09/09 05:09:15;;;;;;;0.00;0.00;;;15.60;99.90;;;;;;5063176;28;20482;-89
2022/09/09 05:11:43;;;;;;;0.00;0.00;;;15.60;99.90;;;;;;5060130;28;20662;-88
2022/09/09 05:14:15;;;;;;;0.00;0.00;;;15.60;99.90;;;;;;5057210;28;20529;-86
2022/09/09 05:16:44;;;;;;;0.00;0.00;;;15.60;99.90;;;;;;5059145;28;20487;-88
2022/09/09 05:19:13;;;;;;;0.00;0.00;;;15.70;99.90;;;;;;5059825;28;20444;-90
2022/09/09 05:21:42;;;;;;;0.00;0.00;;;15.70;99.90;;;;;;5064312;28;20505;-88
2022/09/09 05:24:10;;;;;;;0.00;0.00;;;15.60;99.90;;;;;;5075259;28;20458;-87
2022/09/09 05:26:39;;;;;;;0.00;0.00;;;15.60;99.90;;;;;;5071659;28;20930;-93
2022/09/09 05:29:08;;;;;;;0.00;0.00;;;15.60;99.90;;;;;;5057709;28;20495;-89
2022/09/09 05:31:36;;;;;;;0.00;0.00;;;15.60;99.90;;;;;;5074211;28;21122;-84
2022/09/09 05:34:04;;;;;;;0.00;0.00;;;15.60;99.90;;;;;;5075901;28;20466;-85
2022/09/09 05:36:33;;;;;;;0.00;0.00;;;15.50;99.90;;;;;;5074242;28;20455;-87
2022/09/09 05:39:02;;;;;;;0.00;0.00;;;15.50;99.90;;;;;;5073723;28;20463;-86
2022/09/09 05:41:31;;;;;;;0.00;0.00;;;15.50;99.90;;;;;;5070466;28;21105;-85
2022/09/09 05:44:00;;;;;;;0.00;0.00;;;15.40;99.90;;;;;;5054146;28;20489;-86
2022/09/09 05:46:29;;;;;;;0.00;0.00;;;15.40;99.90;;;;;;5071726;28;20949;-86
2022/09/09 05:48:58;;;;;;;0.00;0.00;;;15.40;99.90;;;;;;5074950;28;20485;-87
2022/09/09 05:51:30;;;;;;;0.00;0.00;;;15.40;99.90;;;;;;5074600;28;20471;-87
2022/09/09 05:53:59;;;;;;;0.00;0.00;;;15.40;99.90;;;;;;5073158;28;20502;-88
2022/09/09 05:56:29;;;;;;;0.00;0.00;;;15.50;99.90;;;;;;5073613;28;20486;-88
2022/09/09 05:58:59;;;;;;;0.00;0.00;;;15.50;99.90;;;;;;5074316;28;20447;-88
2022/09/09 06:01:30;;;;;;;0.00;0.00;;;15.50;99.90;;;;;;5073066;28;20467;-89
2022/09/09 06:03:58;;;;;;;0.00;0.00;;;15.50;99.90;;;;;;5074880;28;20621;-88
2022/09/09 06:06:28;;;;;;;0.00;0.00;;;15.60;99.90;;;;;;5073578;28;20870;-89
2022/09/09 06:08:59;;;;;;;0.00;0.00;;;15.60;99.90;;;;;;5076615;28;20580;-89
2022/09/09 06:11:30;;;;;;;0.00;0.00;;;15.70;99.90;;;;;;5085966;28;20463;-88
2022/09/09 06:14:00;;;;;;;0.00;0.00;;;15.70;99.90;;;;;;5070953;28;20467;-89
2022/09/09 06:16:29;;;;;;;0.00;0.00;;;15.70;99.90;;;;;;5053691;28;20463;-90
2022/09/09 06:18:58;;;;;;;0.00;0.00;;;15.90;99.90;;;;;;5053415;28;20498;-90
2022/09/09 06:21:29;;;;;;;0.00;0.00;;;15.90;99.90;;;;;;5063240;28;20474;-88
2022/09/09 06:24:00;;;;;;;0.00;0.00;;;16.10;99.90;;;;;;5073040;28;20439;-91
2022/09/09 06:26:30;;;;;;;0.00;0.00;;;16.20;99.90;;;;;;5073975;28;20462;-90
2022/09/09 06:29:00;;;;;;;0.10;0.00;;;16.30;99.90;;;;;;5075170;28;20976;-91
2022/09/09 06:31:33;;;;;;;0.00;0.00;;;16.40;99.90;;;;;;5074612;28;20463;-90
2022/09/09 06:34:05;;;;;;;0.00;0.00;;;16.40;99.90;;;;;;5075659;28;20444;-89
2022/09/09 06:36:36;;;;;;;0.00;0.00;;;16.50;99.90;;;;;;5069679;28;20456;-90
2022/09/09 06:39:07;;;;;;;0.00;0.00;;;16.50;99.90;;;;;;5056698;28;20433;-90
2022/09/09 06:41:42;;;;;;;0.00;0.00;;;16.60;99.90;;;;;;5055411;28;20472;-89
2022/09/09 06:44:12;;;;;;;0.00;0.00;;;16.60;99.90;;;;;;5055159;28;20507;-89
2022/09/09 06:46:41;;;;;;;0.00;0.00;;;16.70;99.90;;;;;;5055684;28;20444;-90
2022/09/09 06:49:09;;;;;;;0.00;0.00;;;16.70;99.90;;;;;;5056040;28;20476;-90
2022/09/09 06:51:42;;;;;;;0.00;0.00;;;16.70;99.90;;;;;;5054102;28;20471;-90
2022/09/09 06:54:13;;;;;;;0.00;0.00;;;16.80;99.90;;;;;;5053188;28;20453;-91
2022/09/09 06:56:43;;;;;;;0.00;0.00;;;16.80;99.90;;;;;;5053538;28;20920;-91
2022/09/09 06:59:11;;;;;;;0.00;0.00;;;16.70;99.90;;;;;;5053219;28;20509;-90
2022/09/09 07:01:42;;;;;;;0.00;0.00;;;16.80;99.90;;;;;;5054880;28;20445;-88
2022/09/09 07:04:10;;;;;;;0.00;0.00;;;16.80;99.90;;;;;;5052922;28;20488;-91
2022/09/09 07:06:42;;;;;;;0.00;0.00;;;16.80;99.90;;;;;;5054782;28;20439;-92
2022/09/09 07:09:18;;;;;;;0.00;0.00;;;16.80;99.90;;;;;;5055169;28;20463;-92
2022/09/09 07:11:50;;;;;;;0.00;0.00;;;16.80;99.90;;;;;;5056226;28;20471;-89
2022/09/09 07:14:18;;;;;;;0.00;0.00;;;16.90;99.90;;;;;;5066296;28;20428;-90
2022/09/09 07:16:47;;;;;;;0.00;0.00;;;17.00;99.90;;;;;;5059426;28;20547;-90
2022/09/09 07:19:16;;;;;;;0.00;0.00;;;17.20;99.90;;;;;;5071420;28;20583;-90
2022/09/09 07:21:45;;;;;;;0.00;0.00;;;17.40;99.90;;;;;;5073758;28;20770;-89
2022/09/09 07:24:13;;;;;;;0.00;0.00;;;17.50;99.90;;;;;;5072688;28;20475;-92
2022/09/09 07:27:21;;;;;;;0.00;0.00;;;17.50;99.90;;;;;;5084919;28;20581;-91
2022/09/09 07:29:49;;;;;;;0.00;0.00;;;17.50;99.90;;;;;;5080465;22;20492;-71
2022/09/09 07:32:17;;;;;;;0.00;0.00;;;17.50;99.90;;;;;;5057023;28;20452;-69
2022/09/09 07:34:46;;;;;;;0.00;0.00;;;17.50;99.90;;;;;;5048497;28;20522;-70
2022/09/09 07:37:14;;;;;;;0.00;0.00;;;17.50;99.90;;;;;;5046831;28;20485;-69
2022/09/09 07:39:42;;;;;;;0.00;0.00;;;17.50;99.90;;;;;;5048473;28;20474;-70
2022/09/09 07:42:13;;;;;;;0.00;0.00;;;17.60;99.90;;;;;;5053095;28;20485;-70
2022/09/09 07:44:41;;;;;;;0.00;0.00;;;17.50;99.90;;;;;;5044048;28;20994;-70
2022/09/09 07:47:11;;;;;;;0.00;0.00;;;17.50;99.90;;;;;;5041518;28;21112;-69
2022/09/09 07:49:40;;;;;;;0.00;0.00;;;17.60;99.90;;;;;;5043965;28;20491;-73
2022/09/09 07:52:08;;;;;;;0.00;0.00;;;17.70;99.90;;;;;;5059007;28;20458;-69
2022/09/09 07:54:36;;;;;;;0.00;0.00;;;17.80;99.90;;;;;;5045598;28;20489;-70
2022/09/09 07:57:04;;;;;;;0.00;0.00;;;18.00;99.90;;;;;;5042317;28;20602;-73
2022/09/09 07:59:34;;;;;;;0.00;0.00;;;18.20;99.90;;;;;;5039108;28;20475;-71
2022/09/09 08:02:01;;;;;;;0.00;0.00;;;18.40;99.90;;;;;;5056157;28;20867;-70
2022/09/09 08:04:29;;;;;;;0.00;0.00;;;18.50;99.90;;;;;;5054009;28;20469;-70
2022/09/09 08:06:59;;;;;;;0.00;0.00;;;18.60;99.90;;;;;;5061910;28;20789;-70
2022/09/09 08:09:28;;;;;;;0.00;0.00;;;18.70;99.90;;;;;;5060661;28;20487;-72
2022/09/09 08:11:58;;;;;;;0.00;0.00;;;18.80;99.90;;;;;;5043906;28;20464;-71
2022/09/09 08:14:26;;;;;;;0.00;0.00;;;18.80;99.90;;;;;;5041368;28;20460;-72
2022/09/09 08:16:56;;;;;;;0.00;0.00;;;18.90;99.90;;;;;;5048032;28;20432;-70
2022/09/09 08:19:24;;;;;;;0.00;0.00;;;18.90;99.90;;;;;;5051866;28;20456;-73
2022/09/09 08:21:52;;;;;;;0.00;0.00;;;18.90;99.90;;;;;;5044817;28;20440;-70
2022/09/09 08:24:20;;;;;;;0.00;0.00;;;18.80;99.90;;;;;;5042720;28;20447;-70
2022/09/09 08:26:49;;;;;;;0.00;0.00;;;18.90;99.90;;;;;;5041405;28;20893;-72
2022/09/09 08:29:18;;;;;;;0.00;0.00;;;18.90;99.90;;;;;;5041225;28;20548;-70
2022/09/09 08:31:47;;;;;;;0.00;0.00;;;18.90;99.90;;;;;;5045752;28;20725;-71
2022/09/09 08:34:17;;;;;;;0.00;0.00;;;19.00;99.90;;;;;;5045003;28;20441;-71
2022/09/09 08:36:46;;;;;;;0.00;0.00;;;19.10;99.90;;;;;;5042288;28;20496;-72
2022/09/09 08:39:17;;;;;;;0.00;0.00;;;19.10;99.90;;;;;;5041100;28;20863;-70
2022/09/09 08:42:18;;;;;;;0.00;0.00;;;19.10;99.90;;;;;;5041125;28;20464;-71
2022/09/09 08:45:03;;;;;;;0.00;0.00;;;19.10;99.90;;;;;;5041965;28;20622;-70
2022/09/09 08:47:39;;;;;;;0.00;0.00;;;19.10;99.90;;;;;;5042785;28;20452;-71
2022/09/09 08:50:18;;;;;;;0.00;0.00;;;19.00;99.90;;;;;;5043867;28;20578;-70
2022/09/09 08:52:53;;;;;;;0.00;0.00;;;19.00;99.90;;;;;;5043113;28;20525;-70
2022/09/09 08:55:27;;;;;;;0.00;0.00;;;19.00;99.90;;;;;;5043315;28;20439;-70
2022/09/09 08:58:00;;;;;;;0.00;0.00;;;18.90;99.90;;;;;;5042807;28;20486;-71
2022/09/09 09:00:37;;;;;;;0.00;0.00;;;18.90;99.90;;;;;;5042148;28;20444;-71
2022/09/09 09:03:14;;;;;;;0.00;0.00;;;19.00;99.90;;;;;;5040601;28;20964;-70
2022/09/09 09:05:50;;;;;;;0.00;0.00;;;19.00;99.90;;;;;;5040577;28;20447;-70
2022/09/09 09:08:27;;;;;;;0.00;0.00;;;19.00;99.90;;;;;;5041540;28;20444;-70
2022/09/09 09:11:00;;;;;;;0.00;0.00;;;19.00;99.90;;;;;;5039956;28;20502;-71
2022/09/09 09:13:36;;;;;;;0.00;0.00;;;19.00;99.90;;;;;;5040662;28;20456;-68
2022/09/09 09:16:18;;;;;;;0.00;0.00;;;19.10;99.90;;;;;;5039948;28;20448;-71
2022/09/09 09:18:46;;;;;;;0.00;0.00;;;19.10;99.90;;;;;;5039855;28;20468;-72
2022/09/09 09:21:21;;;;;;;0.00;0.00;;;19.20;99.90;;;;;;5039626;28;20955;-72
2022/09/09 09:23:56;;;;;;;0.00;0.00;;;19.30;99.90;;;;;;5040967;28;20437;-71
2022/09/09 09:26:29;;;;;;;0.00;0.00;;;19.40;99.90;;;;;;5040087;28;20540;-71
2022/09/09 09:29:00;;;;;;;0.00;0.00;;;19.50;99.90;;;;;;5040303;28;20460;-71
2022/09/09 09:31:27;;;;;;;0.00;0.00;;;19.60;99.90;;;;;;5040115;28;20917;-71
2022/09/09 09:33:59;;;;;;;0.00;0.00;;;19.70;99.90;;;;;;5039361;28;20440;-71
2022/09/09 09:36:36;;;;;;;0.00;0.00;;;19.70;99.90;;;;;;5040413;28;20917;-71
2022/09/09 09:39:05;;;;;;;0.00;0.00;;;19.70;99.90;;;;;;5041038;28;20486;-70
2022/09/09 09:41:54;;;;;;;0.00;0.00;;;19.80;99.90;;;;;;5039888;28;20991;-70
2022/09/09 09:44:27;;;;;;;0.00;0.00;;;19.80;99.90;;;;;;5039877;28;21013;-70
2022/09/09 09:47:07;;;;;;;0.00;0.00;;;19.90;99.90;;;;;;5039440;28;20963;-70
2022/09/09 09:49:35;;;;;;;0.00;0.00;;;19.90;99.90;;;;;;5039879;28;20525;-70
2022/09/09 09:52:07;;;;;;;0.00;0.00;;;20.10;99.90;;;;;;5039291;28;20492;-71
2022/09/09 09:54:38;;;;;;;0.00;0.00;;;20.20;99.90;;;;;;5043523;28;20452;-70
2022/09/09 09:57:11;;;;;;;0.00;0.00;;;20.40;99.90;;;;;;5048369;28;20460;-70
2022/09/09 09:59:40;;;;;;;0.00;0.00;;;20.60;99.90;;;;;;5051338;28;20697;-71
2022/09/09 10:02:20;;;;;;;0.00;0.00;;;20.80;99.90;;;;;;5053836;28;20447;-71
2022/09/09 10:04:48;;;;;;;0.00;0.00;;;20.90;99.90;;;;;;5047657;28;20453;-70
2022/09/09 10:07:21;;;;;;;0.00;0.00;;;21.00;99.90;;;;;;5043346;28;20459;-71
2022/09/09 10:09:54;;;;;;;0.00;0.00;;;21.10;99.90;;;;;;5039637;28;20452;-70
2022/09/09 10:12:34;;;;;;;0.00;0.00;;;21.20;99.90;;;;;;5051400;28;20509;-71
2022/09/09 10:15:10;;;;;;;0.00;0.00;;;21.20;99.90;;;;;;5039936;28;20443;-70
2022/09/09 10:17:45;;;;;;;0.00;0.00;;;21.20;99.90;;;;;;5053653;28;20434;-70
2022/09/09 10:20:28;;;;;;;0.00;0.00;;;21.10;99.90;;;;;;5043738;28;20455;-70
2022/09/09 10:23:13;;;;;;;0.00;0.00;;;21.00;99.90;;;;;;5053680;28;20451;-70
2022/09/09 10:25:57;;;;;;;0.00;0.00;;;20.90;99.90;;;;;;5046770;28;20456;-72
2022/09/09 10:28:43;;;;;;;0.00;0.00;;;20.70;99.90;;;;;;5048153;28;20963;-70
2022/09/09 10:31:25;;;;;;;0.00;0.00;;;20.60;99.90;;;;;;5050518;28;20761;-70
2022/09/09 10:34:06;;;;;;;0.00;0.00;;;20.50;99.90;;;;;;5052082;28;20455;-69
2022/09/09 10:36:38;;;;;;;0.00;0.00;;;20.40;99.90;;;;;;5047309;28;20982;-70
2022/09/09 10:39:26;;;;;;;0.00;0.00;;;20.40;99.90;;;;;;5050537;28;20476;-71
2022/09/09 10:42:03;;;;;;;0.00;0.00;;;20.30;99.90;;;;;;5049374;28;20444;-70
2022/09/09 10:44:47;;;;;;;0.00;0.00;;;20.30;99.90;;;;;;5048917;28;20512;-70
2022/09/09 10:47:49;;;;;;;0.00;0.00;;;20.30;99.90;;;;;;5047424;28;20571;-72
2022/09/09 10:50:41;;;;;;;0.00;0.00;;;20.20;99.90;;;;;;5046055;28;21020;-69
2022/09/09 10:53:37;;;;;;;0.00;0.00;;;20.30;99.90;;;;;;5048257;28;20581;-70
2022/09/09 10:56:10;;;;;;;0.00;0.00;;;20.40;99.90;;;;;;5048711;28;20520;-71
2022/09/09 10:58:43;;;;;;;0.00;0.00;;;20.40;99.90;;;;;;5050648;28;20555;-71
2022/09/09 11:01:18;;;;;;;0.00;0.00;;;20.50;99.90;;;;;;5049020;28;20448;-71
2022/09/09 11:03:52;;;;;;;0.00;0.00;;;20.50;99.90;;;;;;5055056;28;20451;-74
2022/09/09 11:06:26;;;;;;;0.00;0.00;;;20.60;99.90;;;;;;5049314;28;20451;-72
2022/09/09 11:08:54;;;;;;;0.00;0.00;;;20.70;99.90;;;;;;5049875;28;20725;-72
2022/09/09 11:11:30;;;;;;;0.00;0.00;;;20.70;99.90;;;;;;5046006;28;20467;-72
2022/09/09 11:14:06;;;;;;;0.00;0.00;;;20.60;99.90;;;;;;5037875;28;20518;-72
2022/09/09 11:16:41;;;;;;;0.00;0.00;;;20.50;99.90;;;;;;5042292;28;20439;-73
2022/09/09 11:19:16;;;;;;;0.00;0.00;;;20.40;99.90;;;;;;5057484;28;20481;-73
2022/09/09 11:21:47;;;;;;;0.00;0.00;;;20.40;99.90;;;;;;5057674;28;20423;-73
2022/09/09 11:24:19;;;;;;;0.00;0.00;;;20.40;99.90;;;;;;5057491;28;20446;-72
2022/09/09 11:26:52;;;;;;;0.00;0.00;;;20.40;99.90;;;;;;5048243;28;20803;-73
2022/09/09 11:29:57;;;;;;;0.00;0.00;;;20.40;99.90;;;;;;5054631;28;20491;-73
2022/09/09 11:32:44;;;;;;;0.00;0.00;;;20.40;99.90;;;;;;5020346;28;20551;-73
2022/09/09 11:35:32;;;;;;;0.00;0.00;;;20.40;99.90;;;;;;5053937;28;20509;-72
2022/09/09 11:38:21;;;;;;;0.00;0.00;;;20.50;99.90;;;;;;5041770;28;20476;-74
2022/09/09 11:40:58;;;;;;;0.00;0.00;;;20.60;99.90;;;;;;5040566;28;20746;-74
2022/09/09 11:43:32;;;;;;;0.00;0.00;;;20.70;99.90;;;;;;5047487;28;20462;-74
2022/09/09 11:46:03;;;;;;;0.00;0.00;;;20.90;99.90;;;;;;5048558;28;20504;-73
2022/09/09 11:48:34;;;;;;;0.00;0.00;;;21.10;99.90;;;;;;5059561;28;20865;-73
2022/09/09 11:51:07;;;;;;;0.00;0.00;;;21.40;99.90;;;;;;5043842;28;20521;-73
2022/09/09 11:53:50;;;;;;;0.00;0.00;;;21.50;99.90;;;;;;5055119;28;20457;-73
2022/09/09 11:56:32;;;;;;;0.00;0.00;;;21.70;99.90;;;;;;5044721;28;20460;-72
2022/09/09 11:59:06;;;;;;;0.00;0.00;;;21.80;99.90;;;;;;5052623;28;20934;-72
2022/09/09 12:01:41;;;;;;;0.00;0.00;;;22.00;99.90;;;;;;5061073;28;20814;-75
2022/09/09 12:04:17;;;;;;;0.00;0.00;;;22.00;99.90;;;;;;5060935;28;20947;-75
2022/09/09 12:06:53;;;;;;;0.00;0.00;;;21.90;99.90;;;;;;5061464;28;20434;-74
2022/09/09 12:09:27;;;;;;;0.00;0.00;;;21.90;99.90;;;;;;5061067;28;20465;-72
2022/09/09 12:12:06;;;;;;;0.00;0.00;;;21.90;99.90;;;;;;5061370;28;21045;-73
2022/09/09 12:14:44;;;;;;;0.00;0.00;;;22.00;99.90;;;;;;5061429;28;20960;-73
2022/09/09 12:17:20;;;;;;;0.00;0.00;;;22.20;99.90;;;;;;5060943;28;20516;-71
2022/09/09 12:19:48;;;;;;;0.00;0.00;;;22.40;99.90;;;;;;5061110;28;20460;-69
2022/09/09 12:22:26;;;;;;;0.00;0.00;;;22.40;99.90;;;;;;5050972;28;20457;-69
2022/09/09 12:25:04;;;;;;;0.00;0.00;;;22.30;99.90;;;;;;5043366;28;20518;-71
2022/09/09 12:27:37;;;;;;;0.00;0.00;;;22.20;99.90;;;;;;5046678;28;21121;-71
2022/09/09 12:30:11;;;;;;;0.00;0.00;;;22.20;99.90;;;;;;5050010;28;20479;-71
2022/09/09 12:32:39;;;;;;;0.00;0.00;;;22.10;99.90;;;;;;5041220;28;20486;-71
2022/09/09 12:35:13;;;;;;;0.00;0.00;;;22.10;99.90;;;;;;5048131;28;21079;-70
2022/09/09 12:37:46;;;;;;;0.00;0.00;;;22.00;99.90;;;;;;5062198;28;20452;-70
2022/09/09 12:40:21;;;;;;;0.00;0.00;;;21.90;99.90;;;;;;5061018;28;21076;-73
2022/09/09 12:42:50;;;;;;;0.00;0.00;;;21.80;99.90;;;;;;5046653;28;20449;-69
2022/09/09 12:45:24;;;;;;;0.00;0.00;;;21.70;99.90;;;;;;5041289;28;20992;-70
2022/09/09 12:47:56;;;;;;;0.00;0.00;;;21.70;99.90;;;;;;5046759;28;20448;-69
2022/09/09 12:50:27;;;;;;;0.00;0.00;;;21.60;99.90;;;;;;5053521;28;21161;-70
2022/09/09 12:52:58;;;;;;;0.00;0.00;;;21.70;99.90;;;;;;5041610;28;20474;-69
2022/09/09 12:55:30;;;;;;;0.00;0.00;;;21.70;99.90;;;;;;5047299;28;21191;-71
2022/09/09 12:58:00;;;;;;;0.00;0.00;;;21.70;99.90;;;;;;5044123;28;20435;-71
2022/09/09 13:00:30;;;;;;;0.00;0.00;;;21.70;99.90;;;;;;5049093;28;21016;-71
2022/09/09 13:03:00;;;;;;;0.00;0.00;;;21.70;99.90;;;;;;5054403;28;20445;-71
2022/09/09 13:05:34;;;;;;;0.00;0.00;;;21.70;99.90;;;;;;5047941;28;21067;-70
2022/09/09 13:08:04;;;;;;;0.00;0.00;;;21.60;99.90;;;;;;5049266;28;20454;-70
2022/09/09 13:10:35;;;;;;;0.00;0.00;;;21.40;99.90;;;;;;5048143;28;20756;-70
2022/09/09 13:13:22;;;;;;;0.00;0.00;;;21.30;99.90;;;;;;5045560;28;20523;-71
2022/09/09 13:15:56;;;;;;;0.00;0.00;;;21.20;99.90;;;;;;5050696;28;20460;-70
2022/09/09 13:18:27;;;;;;;0.00;0.00;;;21.10;99.90;;;;;;5040717;28;20442;-70
2022/09/09 13:20:57;;;;;;;0.00;0.00;;;20.90;99.90;;;;;;5049108;28;20439;-70
2022/09/09 13:23:29;;;;;;;0.00;0.00;;;20.80;99.90;;;;;;5059544;28;20447;-71